sensor_id;sensor_type;location;lat;lon;timestamp;P1;durP1;ratioP1;P2;durP2;ratioP2
60098;SDS011;62818;49.394;8.686;2024-03-08T00:03:27;22.97;;;12.43;;
60098;SDS011;62818;49.394;8.686;2024-03-08T00:08:28;20.45;;;13.60;;
60098;SDS011;62818;49.394;8.686;2024-03-08T00:13:30;22.30;;;15.27;;
60098;SDS011;62818;49.394;8.686;2024-03-08T00:18:31;19.73;;;12.37;;
60098;SDS011;62818;49.394;8.686;2024-03-08T00:28:33;22.83;;;12.55;;
60098;SDS011;62818;49.394;8.686;2024-03-08T00:33:36;23.13;;;13.80;;
60098;SDS011;62818;49.394;8.686;2024-03-08T00:38:37;25.73;;;13.38;;
60098;SDS011;62818;49.394;8.686;2024-03-08T00:43:37;20.65;;;13.90;;
60098;SDS011;62818;49.394;8.686;2024-03-08T00:48:38;24.80;;;14.87;;
60098;SDS011;62818;49.394;8.686;2024-03-08T00:53:38;21.43;;;13.47;;
60098;SDS011;62818;49.394;8.686;2024-03-08T00:58:39;19.43;;;13.20;;
60098;SDS011;62818;49.394;8.686;2024-03-08T01:03:40;22.90;;;13.20;;
60098;SDS011;62818;49.394;8.686;2024-03-08T01:08:42;14.38;;;9.65;;
60098;SDS011;62818;49.394;8.686;2024-03-08T01:13:43;21.60;;;14.20;;
60098;SDS011;62818;49.394;8.686;2024-03-08T01:18:43;12.07;;;9.05;;
60098;SDS011;62818;49.394;8.686;2024-03-08T01:23:44;19.83;;;12.77;;
60098;SDS011;62818;49.394;8.686;2024-03-08T01:28:44;27.17;;;14.77;;
60098;SDS011;62818;49.394;8.686;2024-03-08T01:33:45;22.20;;;13.07;;
60098;SDS011;62818;49.394;8.686;2024-03-08T01:38:45;24.02;;;13.85;;
60098;SDS011;62818;49.394;8.686;2024-03-08T01:43:46;23.40;;;13.77;;
60098;SDS011;62818;49.394;8.686;2024-03-08T01:48:46;28.27;;;15.25;;
60098;SDS011;62818;49.394;8.686;2024-03-08T01:53:47;20.50;;;14.43;;
60098;SDS011;62818;49.394;8.686;2024-03-08T01:58:48;22.42;;;13.93;;
60098;SDS011;62818;49.394;8.686;2024-03-08T02:03:49;25.77;;;15.73;;
60098;SDS011;62818;49.394;8.686;2024-03-08T02:08:50;22.35;;;15.30;;
60098;SDS011;62818;49.394;8.686;2024-03-08T02:13:51;23.73;;;14.68;;
60098;SDS011;62818;49.394;8.686;2024-03-08T02:18:52;21.53;;;13.83;;
60098;SDS011;62818;49.394;8.686;2024-03-08T02:23:53;17.02;;;13.00;;
60098;SDS011;62818;49.394;8.686;2024-03-08T02:28:53;22.70;;;13.23;;
60098;SDS011;62818;49.394;8.686;2024-03-08T02:33:54;23.83;;;13.07;;
60098;SDS011;62818;49.394;8.686;2024-03-08T02:38:54;22.07;;;14.73;;
60098;SDS011;62818;49.394;8.686;2024-03-08T02:43:55;20.92;;;12.98;;
60098;SDS011;62818;49.394;8.686;2024-03-08T02:48:56;27.33;;;14.60;;
60098;SDS011;62818;49.394;8.686;2024-03-08T02:53:56;23.27;;;13.88;;
60098;SDS011;62818;49.394;8.686;2024-03-08T02:58:57;19.40;;;13.02;;
60098;SDS011;62818;49.394;8.686;2024-03-08T03:03:57;22.70;;;13.07;;
60098;SDS011;62818;49.394;8.686;2024-03-08T03:08:58;21.55;;;12.38;;
60098;SDS011;62818;49.394;8.686;2024-03-08T03:13:59;20.47;;;11.77;;
60098;SDS011;62818;49.394;8.686;2024-03-08T03:18:59;14.23;;;10.23;;
60098;SDS011;62818;49.394;8.686;2024-03-08T03:24:01;22.33;;;13.45;;
60098;SDS011;62818;49.394;8.686;2024-03-08T03:29:07;22.88;;;13.27;;
60098;SDS011;62818;49.394;8.686;2024-03-08T03:34:09;20.38;;;13.20;;
60098;SDS011;62818;49.394;8.686;2024-03-08T03:39:09;22.85;;;13.43;;
60098;SDS011;62818;49.394;8.686;2024-03-08T03:44:15;24.42;;;15.63;;
60098;SDS011;62818;49.394;8.686;2024-03-08T03:49:16;22.52;;;13.25;;
60098;SDS011;62818;49.394;8.686;2024-03-08T03:54:19;20.67;;;13.55;;
60098;SDS011;62818;49.394;8.686;2024-03-08T03:59:20;20.43;;;13.00;;
60098;SDS011;62818;49.394;8.686;2024-03-08T04:04:21;24.27;;;13.03;;
60098;SDS011;62818;49.394;8.686;2024-03-08T04:14:23;21.00;;;13.60;;
60098;SDS011;62818;49.394;8.686;2024-03-08T04:19:23;19.45;;;14.00;;
60098;SDS011;62818;49.394;8.686;2024-03-08T04:24:24;28.92;;;15.43;;
60098;SDS011;62818;49.394;8.686;2024-03-08T04:29:25;20.67;;;11.85;;
60098;SDS011;62818;49.394;8.686;2024-03-08T04:34:27;13.15;;;9.63;;
60098;SDS011;62818;49.394;8.686;2024-03-08T04:39:28;25.60;;;14.07;;
60098;SDS011;62818;49.394;8.686;2024-03-08T04:44:29;29.00;;;13.93;;
60098;SDS011;62818;49.394;8.686;2024-03-08T04:49:32;25.80;;;14.77;;
60098;SDS011;62818;49.394;8.686;2024-03-08T04:54:34;23.85;;;14.18;;
60098;SDS011;62818;49.394;8.686;2024-03-08T04:59:35;25.17;;;13.65;;
60098;SDS011;62818;49.394;8.686;2024-03-08T05:04:36;25.95;;;13.77;;
60098;SDS011;62818;49.394;8.686;2024-03-08T05:09:36;26.33;;;13.97;;
60098;SDS011;62818;49.394;8.686;2024-03-08T05:19:37;24.10;;;13.27;;
60098;SDS011;62818;49.394;8.686;2024-03-08T05:24:38;23.17;;;14.13;;
60098;SDS011;62818;49.394;8.686;2024-03-08T05:29:38;18.25;;;13.32;;
60098;SDS011;62818;49.394;8.686;2024-03-08T05:34:39;25.33;;;15.00;;
60098;SDS011;62818;49.394;8.686;2024-03-08T05:39:39;34.93;;;13.33;;
60098;SDS011;62818;49.394;8.686;2024-03-08T05:44:40;24.98;;;14.60;;
60098;SDS011;62818;49.394;8.686;2024-03-08T05:49:41;22.00;;;13.87;;
60098;SDS011;62818;49.394;8.686;2024-03-08T05:54:44;19.85;;;13.88;;
60098;SDS011;62818;49.394;8.686;2024-03-08T05:59:45;24.27;;;15.73;;
60098;SDS011;62818;49.394;8.686;2024-03-08T06:04:48;14.25;;;10.45;;
60098;SDS011;62818;49.394;8.686;2024-03-08T06:09:49;21.73;;;12.15;;
60098;SDS011;62818;49.394;8.686;2024-03-08T06:14:50;24.37;;;13.27;;
60098;SDS011;62818;49.394;8.686;2024-03-08T06:19:50;27.50;;;14.27;;
60098;SDS011;62818;49.394;8.686;2024-03-08T06:24:52;28.85;;;16.98;;
60098;SDS011;62818;49.394;8.686;2024-03-08T06:29:54;25.83;;;15.43;;
60098;SDS011;62818;49.394;8.686;2024-03-08T06:34:54;28.87;;;15.57;;
60098;SDS011;62818;49.394;8.686;2024-03-08T06:39:55;27.65;;;14.27;;
60098;SDS011;62818;49.394;8.686;2024-03-08T06:44:55;15.70;;;11.10;;
60098;SDS011;62818;49.394;8.686;2024-03-08T06:49:59;26.38;;;14.50;;
60098;SDS011;62818;49.394;8.686;2024-03-08T06:55:00;21.70;;;12.80;;
60098;SDS011;62818;49.394;8.686;2024-03-08T07:00:01;16.90;;;10.95;;
60098;SDS011;62818;49.394;8.686;2024-03-08T07:10:04;29.60;;;14.77;;
60098;SDS011;62818;49.394;8.686;2024-03-08T07:15:05;17.77;;;12.30;;
60098;SDS011;62818;49.394;8.686;2024-03-08T07:20:06;24.45;;;16.55;;
60098;SDS011;62818;49.394;8.686;2024-03-08T07:25:11;23.17;;;14.70;;
60098;SDS011;62818;49.394;8.686;2024-03-08T07:30:22;20.63;;;14.50;;
60098;SDS011;62818;49.394;8.686;2024-03-08T07:35:43;16.60;;;12.05;;
60098;SDS011;62818;49.394;8.686;2024-03-08T07:40:45;17.60;;;12.07;;
60098;SDS011;62818;49.394;8.686;2024-03-08T07:45:45;24.67;;;13.55;;
60098;SDS011;62818;49.394;8.686;2024-03-08T07:50:46;13.45;;;9.55;;
60098;SDS011;62818;49.394;8.686;2024-03-08T07:55:46;18.83;;;12.45;;
60098;SDS011;62818;49.394;8.686;2024-03-08T08:00:47;23.33;;;13.90;;
60098;SDS011;62818;49.394;8.686;2024-03-08T08:05:49;16.98;;;12.95;;
60098;SDS011;62818;49.394;8.686;2024-03-08T08:10:50;18.30;;;12.27;;
60098;SDS011;62818;49.394;8.686;2024-03-08T08:15:50;17.40;;;11.70;;
60098;SDS011;62818;49.394;8.686;2024-03-08T08:20:51;23.00;;;13.18;;
60098;SDS011;62818;49.394;8.686;2024-03-08T08:25:54;15.85;;;11.63;;
60098;SDS011;62818;49.394;8.686;2024-03-08T08:30:55;22.45;;;14.15;;
60098;SDS011;62818;49.394;8.686;2024-03-08T08:35:56;24.92;;;16.35;;
60098;SDS011;62818;49.394;8.686;2024-03-08T08:40:56;23.77;;;15.00;;
60098;SDS011;62818;49.394;8.686;2024-03-08T08:45:57;24.50;;;18.52;;
60098;SDS011;62818;49.394;8.686;2024-03-08T08:50:57;25.47;;;16.30;;
60098;SDS011;62818;49.394;8.686;2024-03-08T08:55:57;26.20;;;18.20;;
60098;SDS011;62818;49.394;8.686;2024-03-08T09:00:58;20.97;;;14.83;;
60098;SDS011;62818;49.394;8.686;2024-03-08T09:05:59;32.88;;;21.23;;
60098;SDS011;62818;49.394;8.686;2024-03-08T09:11:00;22.52;;;16.77;;
60098;SDS011;62818;49.394;8.686;2024-03-08T09:16:01;23.83;;;17.70;;
60098;SDS011;62818;49.394;8.686;2024-03-08T09:21:05;21.65;;;14.98;;
60098;SDS011;62818;49.394;8.686;2024-03-08T09:26:09;24.98;;;16.25;;
60098;SDS011;62818;49.394;8.686;2024-03-08T09:36:11;25.73;;;17.33;;
60098;SDS011;62818;49.394;8.686;2024-03-08T09:41:14;20.50;;;16.27;;
60098;SDS011;62818;49.394;8.686;2024-03-08T09:51:15;20.77;;;16.48;;
60098;SDS011;62818;49.394;8.686;2024-03-08T10:01:17;21.10;;;16.00;;
60098;SDS011;62818;49.394;8.686;2024-03-08T10:11:24;18.95;;;14.43;;
60098;SDS011;62818;49.394;8.686;2024-03-08T10:16:29;21.95;;;16.98;;
60098;SDS011;62818;49.394;8.686;2024-03-08T10:21:30;19.02;;;15.40;;
60098;SDS011;62818;49.394;8.686;2024-03-08T10:26:33;21.85;;;15.23;;
60098;SDS011;62818;49.394;8.686;2024-03-08T10:36:34;20.35;;;16.05;;
60098;SDS011;62818;49.394;8.686;2024-03-08T10:41:37;18.65;;;15.43;;
60098;SDS011;62818;49.394;8.686;2024-03-08T10:52:09;18.08;;;14.30;;
60098;SDS011;62818;49.394;8.686;2024-03-08T10:57:13;21.30;;;17.08;;
60098;SDS011;62818;49.394;8.686;2024-03-08T11:02:19;21.52;;;16.67;;
60098;SDS011;62818;49.394;8.686;2024-03-08T11:07:19;22.02;;;16.27;;
60098;SDS011;62818;49.394;8.686;2024-03-08T11:27:34;19.63;;;15.50;;
60098;SDS011;62818;49.394;8.686;2024-03-08T11:32:37;24.58;;;16.48;;
60098;SDS011;62818;49.394;8.686;2024-03-08T11:37:38;25.10;;;15.82;;
60098;SDS011;62818;49.394;8.686;2024-03-08T11:47:43;25.80;;;17.30;;
60098;SDS011;62818;49.394;8.686;2024-03-08T11:52:47;24.20;;;17.45;;
60098;SDS011;62818;49.394;8.686;2024-03-08T12:03:00;19.40;;;16.13;;
60098;SDS011;62818;49.394;8.686;2024-03-08T12:08:06;24.38;;;18.20;;
60098;SDS011;62818;49.394;8.686;2024-03-08T12:13:12;23.27;;;16.50;;
60098;SDS011;62818;49.394;8.686;2024-03-08T12:18:14;26.20;;;17.40;;
60098;SDS011;62818;49.394;8.686;2024-03-08T12:28:16;22.23;;;15.97;;
60098;SDS011;62818;49.394;8.686;2024-03-08T12:33:19;23.63;;;17.23;;
60098;SDS011;62818;49.394;8.686;2024-03-08T12:43:27;22.60;;;17.38;;
60098;SDS011;62818;49.394;8.686;2024-03-08T12:48:33;24.10;;;17.65;;
60098;SDS011;62818;49.394;8.686;2024-03-08T12:53:40;22.35;;;17.42;;
60098;SDS011;62818;49.394;8.686;2024-03-08T12:58:40;22.38;;;17.80;;
60098;SDS011;62818;49.394;8.686;2024-03-08T13:03:42;23.70;;;18.00;;
60098;SDS011;62818;49.394;8.686;2024-03-08T13:08:43;22.40;;;17.27;;
60098;SDS011;62818;49.394;8.686;2024-03-08T13:13:44;24.60;;;18.02;;
60098;SDS011;62818;49.394;8.686;2024-03-08T13:23:49;24.85;;;18.17;;
60098;SDS011;62818;49.394;8.686;2024-03-08T13:28:49;22.40;;;17.30;;
60098;SDS011;62818;49.394;8.686;2024-03-08T13:33:53;21.33;;;17.23;;
60098;SDS011;62818;49.394;8.686;2024-03-08T13:38:58;24.40;;;16.45;;
60098;SDS011;62818;49.394;8.686;2024-03-08T13:43:59;22.42;;;17.27;;
60098;SDS011;62818;49.394;8.686;2024-03-08T13:49:03;22.30;;;16.83;;
60098;SDS011;62818;49.394;8.686;2024-03-08T13:54:07;21.50;;;17.05;;
60098;SDS011;62818;49.394;8.686;2024-03-08T13:59:08;20.25;;;16.38;;
60098;SDS011;62818;49.394;8.686;2024-03-08T14:04:09;19.33;;;17.02;;
60098;SDS011;62818;49.394;8.686;2024-03-08T14:09:12;18.90;;;15.15;;
60098;SDS011;62818;49.394;8.686;2024-03-08T14:14:16;19.27;;;15.85;;
60098;SDS011;62818;49.394;8.686;2024-03-08T14:19:18;20.60;;;16.10;;
60098;SDS011;62818;49.394;8.686;2024-03-08T14:24:20;22.90;;;16.95;;
60098;SDS011;62818;49.394;8.686;2024-03-08T14:29:20;25.13;;;16.38;;
60098;SDS011;62818;49.394;8.686;2024-03-08T14:34:21;19.92;;;15.82;;
60098;SDS011;62818;49.394;8.686;2024-03-08T14:39:21;20.35;;;16.30;;
60098;SDS011;62818;49.394;8.686;2024-03-08T14:44:26;19.00;;;15.50;;
60098;SDS011;62818;49.394;8.686;2024-03-08T14:49:26;23.35;;;17.17;;
60098;SDS011;62818;49.394;8.686;2024-03-08T14:54:29;21.67;;;16.95;;
60098;SDS011;62818;49.394;8.686;2024-03-08T14:59:29;25.25;;;17.13;;
60098;SDS011;62818;49.394;8.686;2024-03-08T15:04:30;20.23;;;15.20;;
60098;SDS011;62818;49.394;8.686;2024-03-08T15:09:31;20.00;;;15.88;;
60098;SDS011;62818;49.394;8.686;2024-03-08T15:14:39;19.95;;;14.88;;
60098;SDS011;62818;49.394;8.686;2024-03-08T15:19:40;20.10;;;15.98;;
60098;SDS011;62818;49.394;8.686;2024-03-08T15:24:41;19.17;;;15.32;;
60098;SDS011;62818;49.394;8.686;2024-03-08T15:29:43;18.90;;;15.70;;
60098;SDS011;62818;49.394;8.686;2024-03-08T15:34:47;18.80;;;14.93;;
60098;SDS011;62818;49.394;8.686;2024-03-08T15:39:48;17.08;;;15.18;;
60098;SDS011;62818;49.394;8.686;2024-03-08T15:44:48;22.13;;;16.80;;
60098;SDS011;62818;49.394;8.686;2024-03-08T15:49:49;22.00;;;16.85;;
60098;SDS011;62818;49.394;8.686;2024-03-08T15:54:49;21.63;;;17.52;;
60098;SDS011;62818;49.394;8.686;2024-03-08T15:59:49;19.65;;;15.82;;
60098;SDS011;62818;49.394;8.686;2024-03-08T16:04:50;21.98;;;16.20;;
60098;SDS011;62818;49.394;8.686;2024-03-08T16:09:52;22.00;;;16.48;;
60098;SDS011;62818;49.394;8.686;2024-03-08T16:14:53;40.75;;;29.63;;
60098;SDS011;62818;49.394;8.686;2024-03-08T16:19:54;18.48;;;15.48;;
60098;SDS011;62818;49.394;8.686;2024-03-08T16:24:56;20.05;;;16.30;;
60098;SDS011;62818;49.394;8.686;2024-03-08T16:29:57;24.52;;;16.33;;
60098;SDS011;62818;49.394;8.686;2024-03-08T16:34:57;23.67;;;15.35;;
60098;SDS011;62818;49.394;8.686;2024-03-08T16:39:59;19.65;;;17.02;;
60098;SDS011;62818;49.394;8.686;2024-03-08T16:45:00;24.63;;;16.75;;
60098;SDS011;62818;49.394;8.686;2024-03-08T16:50:01;23.33;;;15.40;;
60098;SDS011;62818;49.394;8.686;2024-03-08T16:55:05;22.05;;;16.02;;
60098;SDS011;62818;49.394;8.686;2024-03-08T17:00:06;21.50;;;16.50;;
60098;SDS011;62818;49.394;8.686;2024-03-08T17:05:09;19.17;;;14.68;;
60098;SDS011;62818;49.394;8.686;2024-03-08T17:15:15;21.95;;;15.88;;
60098;SDS011;62818;49.394;8.686;2024-03-08T17:20:22;21.85;;;15.88;;
60098;SDS011;62818;49.394;8.686;2024-03-08T17:25:25;28.48;;;15.52;;
60098;SDS011;62818;49.394;8.686;2024-03-08T17:30:27;21.08;;;15.30;;
60098;SDS011;62818;49.394;8.686;2024-03-08T17:35:32;24.40;;;14.75;;
60098;SDS011;62818;49.394;8.686;2024-03-08T17:40:34;20.90;;;14.70;;
60098;SDS011;62818;49.394;8.686;2024-03-08T17:45:40;18.60;;;13.52;;
60098;SDS011;62818;49.394;8.686;2024-03-08T17:50:46;19.95;;;14.10;;
60098;SDS011;62818;49.394;8.686;2024-03-08T17:55:50;21.40;;;14.63;;
60098;SDS011;62818;49.394;8.686;2024-03-08T18:00:51;21.33;;;14.82;;
60098;SDS011;62818;49.394;8.686;2024-03-08T18:05:53;17.90;;;12.68;;
60098;SDS011;62818;49.394;8.686;2024-03-08T18:10:54;18.65;;;12.43;;
60098;SDS011;62818;49.394;8.686;2024-03-08T18:20:56;15.85;;;11.10;;
60098;SDS011;62818;49.394;8.686;2024-03-08T18:30:57;14.73;;;10.97;;
60098;SDS011;62818;49.394;8.686;2024-03-08T18:40:58;15.02;;;8.55;;
60098;SDS011;62818;49.394;8.686;2024-03-08T18:46:01;18.20;;;11.65;;
60098;SDS011;62818;49.394;8.686;2024-03-08T18:56:01;14.57;;;9.43;;
60098;SDS011;62818;49.394;8.686;2024-03-08T19:01:02;16.73;;;11.82;;
60098;SDS011;62818;49.394;8.686;2024-03-08T19:06:05;14.88;;;9.60;;
60098;SDS011;62818;49.394;8.686;2024-03-08T19:11:06;14.77;;;10.23;;
60098;SDS011;62818;49.394;8.686;2024-03-08T19:21:14;13.50;;;7.38;;
60098;SDS011;62818;49.394;8.686;2024-03-08T19:31:15;9.47;;;6.73;;
60098;SDS011;62818;49.394;8.686;2024-03-08T19:36:15;13.40;;;7.80;;
60098;SDS011;62818;49.394;8.686;2024-03-08T19:41:18;10.57;;;6.80;;
60098;SDS011;62818;49.394;8.686;2024-03-08T19:51:19;11.40;;;7.35;;
60098;SDS011;62818;49.394;8.686;2024-03-08T20:01:22;8.60;;;6.85;;
60098;SDS011;62818;49.394;8.686;2024-03-08T20:06:23;9.30;;;7.43;;
60098;SDS011;62818;49.394;8.686;2024-03-08T20:16:25;7.63;;;5.53;;
60098;SDS011;62818;49.394;8.686;2024-03-08T20:21:26;9.73;;;7.13;;
60098;SDS011;62818;49.394;8.686;2024-03-08T20:26:28;10.05;;;6.85;;
60098;SDS011;62818;49.394;8.686;2024-03-08T20:31:29;8.27;;;6.38;;
60098;SDS011;62818;49.394;8.686;2024-03-08T20:36:31;12.73;;;7.68;;
60098;SDS011;62818;49.394;8.686;2024-03-08T20:41:32;9.73;;;7.03;;
60098;SDS011;62818;49.394;8.686;2024-03-08T20:46:32;9.93;;;7.90;;
60098;SDS011;62818;49.394;8.686;2024-03-08T20:56:35;8.83;;;6.03;;
60098;SDS011;62818;49.394;8.686;2024-03-08T21:01:36;8.93;;;7.40;;
60098;SDS011;62818;49.394;8.686;2024-03-08T21:06:36;14.68;;;7.57;;
60098;SDS011;62818;49.394;8.686;2024-03-08T21:11:37;10.05;;;7.38;;
60098;SDS011;62818;49.394;8.686;2024-03-08T21:16:40;10.88;;;7.15;;
60098;SDS011;62818;49.394;8.686;2024-03-08T21:21:41;12.70;;;7.68;;
60098;SDS011;62818;49.394;8.686;2024-03-08T21:26:42;11.17;;;7.13;;
60098;SDS011;62818;49.394;8.686;2024-03-08T21:31:42;9.98;;;6.93;;
60098;SDS011;62818;49.394;8.686;2024-03-08T21:36:43;7.30;;;5.85;;
60098;SDS011;62818;49.394;8.686;2024-03-08T21:41:45;10.20;;;7.15;;
60098;SDS011;62818;49.394;8.686;2024-03-08T21:46:45;9.82;;;6.63;;
60098;SDS011;62818;49.394;8.686;2024-03-08T21:51:48;9.77;;;6.80;;
60098;SDS011;62818;49.394;8.686;2024-03-08T21:56:49;11.30;;;6.85;;
60098;SDS011;62818;49.394;8.686;2024-03-08T22:01:50;7.70;;;5.50;;
60098;SDS011;62818;49.394;8.686;2024-03-08T22:06:52;7.22;;;5.25;;
60098;SDS011;62818;49.394;8.686;2024-03-08T22:11:56;9.73;;;6.47;;
60098;SDS011;62818;49.394;8.686;2024-03-08T22:16:57;8.10;;;5.75;;
60098;SDS011;62818;49.394;8.686;2024-03-08T22:21:57;7.85;;;6.03;;
60098;SDS011;62818;49.394;8.686;2024-03-08T22:32:00;6.53;;;4.97;;
60098;SDS011;62818;49.394;8.686;2024-03-08T22:37:01;9.37;;;5.40;;
60098;SDS011;62818;49.394;8.686;2024-03-08T22:42:04;9.73;;;6.80;;
60098;SDS011;62818;49.394;8.686;2024-03-08T22:47:05;8.98;;;6.65;;
60098;SDS011;62818;49.394;8.686;2024-03-08T22:52:07;10.77;;;6.85;;
60098;SDS011;62818;49.394;8.686;2024-03-08T22:57:07;7.13;;;4.67;;
60098;SDS011;62818;49.394;8.686;2024-03-08T23:02:09;10.57;;;5.90;;
60098;SDS011;62818;49.394;8.686;2024-03-08T23:12:10;9.90;;;7.10;;
60098;SDS011;62818;49.394;8.686;2024-03-08T23:17:11;10.48;;;6.45;;
60098;SDS011;62818;49.394;8.686;2024-03-08T23:22:12;12.15;;;7.38;;
60098;SDS011;62818;49.394;8.686;2024-03-08T23:32:13;10.33;;;6.97;;
60098;SDS011;62818;49.394;8.686;2024-03-08T23:37:14;9.40;;;6.68;;
60098;SDS011;62818;49.394;8.686;2024-03-08T23:42:14;8.13;;;5.80;;
60098;SDS011;62818;49.394;8.686;2024-03-08T23:47:15;11.98;;;8.02;;
60098;SDS011;62818;49.394;8.686;2024-03-08T23:52:16;10.53;;;7.53;;
60098;SDS011;62818;49.394;8.686;2024-03-08T23:57:16;12.40;;;9.40;;
